sensor_id;sensor_type;location;lat;lon;timestamp;pressure;altitude;pressure_sealevel;temperature;humidity
7532;BME280;3807;49.030;8.714;2023-01-29T00:01:07;100531.53;;;3.92;71.56
7532;BME280;3807;49.030;8.714;2023-01-29T00:03:33;100541.59;;;3.92;71.60
7532;BME280;3807;49.030;8.714;2023-01-29T00:05:59;100532.31;;;3.90;71.78
7532;BME280;3807;49.030;8.714;2023-01-29T00:08:25;100528.06;;;3.86;71.90
7532;BME280;3807;49.030;8.714;2023-01-29T00:10:51;100528.13;;;3.89;71.80
7532;BME280;3807;49.030;8.714;2023-01-29T00:13:16;100515.47;;;3.86;71.76
7532;BME280;3807;49.030;8.714;2023-01-29T00:15:41;100521.34;;;3.85;71.98
7532;BME280;3807;49.030;8.714;2023-01-29T00:18:07;100517.94;;;3.82;71.87
7532;BME280;3807;49.030;8.714;2023-01-29T00:20:32;100523.84;;;3.83;71.79
7532;BME280;3807;49.030;8.714;2023-01-29T00:22:58;100522.13;;;3.80;71.66
7532;BME280;3807;49.030;8.714;2023-01-29T00:25:23;100522.94;;;3.79;69.94
7532;BME280;3807;49.030;8.714;2023-01-29T00:27:49;100525.34;;;3.70;71.44
7532;BME280;3807;49.030;8.714;2023-01-29T00:30:15;100532.22;;;3.80;71.44
7532;BME280;3807;49.030;8.714;2023-01-29T00:32:43;100526.06;;;3.62;70.33
7532;BME280;3807;49.030;8.714;2023-01-29T00:35:10;100529.47;;;3.65;71.60
7532;BME280;3807;49.030;8.714;2023-01-29T00:37:36;100524.47;;;3.67;71.44
7532;BME280;3807;49.030;8.714;2023-01-29T00:40:02;100533.66;;;3.63;71.63
7532;BME280;3807;49.030;8.714;2023-01-29T00:42:28;100532.94;;;3.72;71.64
7532;BME280;3807;49.030;8.714;2023-01-29T00:45:12;100533.84;;;3.78;71.54
7532;BME280;3807;49.030;8.714;2023-01-29T00:47:37;100532.19;;;3.77;71.72
7532;BME280;3807;49.030;8.714;2023-01-29T00:50:08;100534.66;;;3.76;71.56
7532;BME280;3807;49.030;8.714;2023-01-29T00:52:34;100533.06;;;3.81;71.48
7532;BME280;3807;49.030;8.714;2023-01-29T00:55:01;100532.13;;;3.76;71.49
7532;BME280;3807;49.030;8.714;2023-01-29T00:57:29;100530.47;;;3.76;71.51
7532;BME280;3807;49.030;8.714;2023-01-29T00:59:54;100530.44;;;3.75;71.70
7532;BME280;3807;49.030;8.714;2023-01-29T01:02:20;100523.81;;;3.81;71.29
7532;BME280;3807;49.030;8.714;2023-01-29T01:05:06;100533.84;;;3.78;71.41
7532;BME280;3807;49.030;8.714;2023-01-29T01:07:34;100529.75;;;3.85;71.13
7532;BME280;3807;49.030;8.714;2023-01-29T01:09:59;100528.87;;;3.81;71.23
7532;BME280;3807;49.030;8.714;2023-01-29T01:12:43;100534.69;;;3.79;70.94
7532;BME280;3807;49.030;8.714;2023-01-29T01:15:09;100524.56;;;3.74;71.24
7532;BME280;3807;49.030;8.714;2023-01-29T01:17:35;100533.81;;;3.75;71.35
7532;BME280;3807;49.030;8.714;2023-01-29T01:20:00;100527.00;;;3.68;71.42
7532;BME280;3807;49.030;8.714;2023-01-29T01:22:26;100525.41;;;3.73;71.42
7532;BME280;3807;49.030;8.714;2023-01-29T01:24:52;100530.44;;;3.75;71.37
7532;BME280;3807;49.030;8.714;2023-01-29T01:27:17;100531.34;;;3.77;71.24
7532;BME280;3807;49.030;8.714;2023-01-29T01:29:44;100533.84;;;3.77;71.24
7532;BME280;3807;49.030;8.714;2023-01-29T01:32:10;100527.91;;;3.73;71.18
7532;BME280;3807;49.030;8.714;2023-01-29T01:34:36;100532.91;;;3.70;71.27
7532;BME280;3807;49.030;8.714;2023-01-29T01:37:01;100538.84;;;3.74;71.17
7532;BME280;3807;49.030;8.714;2023-01-29T01:39:26;100540.56;;;3.78;71.05
7532;BME280;3807;49.030;8.714;2023-01-29T01:41:53;100538.75;;;3.68;71.31
7532;BME280;3807;49.030;8.714;2023-01-29T01:44:50;100538.75;;;3.69;71.19
7532;BME280;3807;49.030;8.714;2023-01-29T01:47:22;100546.31;;;3.68;71.25
7532;BME280;3807;49.030;8.714;2023-01-29T01:49:49;100542.91;;;3.66;71.30
7532;BME280;3807;49.030;8.714;2023-01-29T01:52:16;100533.62;;;3.62;71.42
7532;BME280;3807;49.030;8.714;2023-01-29T01:54:42;100535.28;;;3.61;71.42
7532;BME280;3807;49.030;8.714;2023-01-29T01:57:12;100534.50;;;3.65;71.20
7532;BME280;3807;49.030;8.714;2023-01-29T01:59:42;100526.94;;;3.65;71.25
7532;BME280;3807;49.030;8.714;2023-01-29T02:02:11;100522.66;;;3.58;71.55
7532;BME280;3807;49.030;8.714;2023-01-29T02:04:56;100523.53;;;3.60;71.30
7532;BME280;3807;49.030;8.714;2023-01-29T02:07:45;100519.34;;;3.61;71.16
7532;BME280;3807;49.030;8.714;2023-01-29T02:10:35;100524.38;;;3.61;71.44
7532;BME280;3807;49.030;8.714;2023-01-29T02:13:04;100516.88;;;3.65;71.13
7532;BME280;3807;49.030;8.714;2023-01-29T02:15:30;100522.69;;;3.60;71.36
7532;BME280;3807;49.030;8.714;2023-01-29T02:17:55;100521.81;;;3.59;71.23
7532;BME280;3807;49.030;8.714;2023-01-29T02:20:26;100526.84;;;3.59;71.17
7532;BME280;3807;49.030;8.714;2023-01-29T02:25:58;100530.19;;;3.56;71.18
7532;BME280;3807;49.030;8.714;2023-01-29T02:31:16;100521.72;;;3.50;71.24
7532;BME280;3807;49.030;8.714;2023-01-29T02:37:01;100526.84;;;3.56;71.16
7532;BME280;3807;49.030;8.714;2023-01-29T02:39:33;100530.12;;;3.52;71.20
7532;BME280;3807;49.030;8.714;2023-01-29T02:42:20;100520.09;;;3.55;71.06
7532;BME280;3807;49.030;8.714;2023-01-29T02:50:12;100532.72;;;3.56;71.02
7532;BME280;3807;49.030;8.714;2023-01-29T02:53:05;100526.09;;;3.63;70.60
7532;BME280;3807;49.030;8.714;2023-01-29T02:55:48;100520.91;;;3.52;69.75
7532;BME280;3807;49.030;8.714;2023-01-29T02:58:42;100520.03;;;3.49;71.02
7532;BME280;3807;49.030;8.714;2023-01-29T03:01:27;100520.88;;;3.49;71.17
7532;BME280;3807;49.030;8.714;2023-01-29T03:03:58;100514.97;;;3.49;71.11
7532;BME280;3807;49.030;8.714;2023-01-29T03:06:34;100518.25;;;3.45;71.11
7532;BME280;3807;49.030;8.714;2023-01-29T03:11:45;100509.91;;;3.46;71.10
7532;BME280;3807;49.030;8.714;2023-01-29T03:14:21;100512.47;;;3.49;71.00
7532;BME280;3807;49.030;8.714;2023-01-29T03:16:49;100509.06;;;3.48;70.87
7532;BME280;3807;49.030;8.714;2023-01-29T03:22:03;100509.00;;;3.44;71.00
7532;BME280;3807;49.030;8.714;2023-01-29T03:24:38;100504.81;;;3.44;71.05
7532;BME280;3807;49.030;8.714;2023-01-29T03:27:28;100511.47;;;3.39;71.10
7532;BME280;3807;49.030;8.714;2023-01-29T03:30:16;100507.38;;;3.46;70.93
7532;BME280;3807;49.030;8.714;2023-01-29T03:33:05;100509.00;;;3.44;70.94
7532;BME280;3807;49.030;8.714;2023-01-29T03:35:39;100514.00;;;3.39;71.06
7532;BME280;3807;49.030;8.714;2023-01-29T03:38:09;100513.16;;;3.42;70.98
7532;BME280;3807;49.030;8.714;2023-01-29T03:41:14;100513.16;;;3.39;70.94
7532;BME280;3807;49.030;8.714;2023-01-29T03:43:44;100517.41;;;3.44;70.89
7532;BME280;3807;49.030;8.714;2023-01-29T03:46:32;100513.22;;;3.43;70.90
7532;BME280;3807;49.030;8.714;2023-01-29T03:51:35;100510.66;;;3.42;70.86
7532;BME280;3807;49.030;8.714;2023-01-29T03:54:17;100510.69;;;3.43;70.90
7532;BME280;3807;49.030;8.714;2023-01-29T04:00:19;100518.25;;;3.45;70.73
7532;BME280;3807;49.030;8.714;2023-01-29T04:05:29;100523.22;;;3.40;70.85
7532;BME280;3807;49.030;8.714;2023-01-29T04:08:03;100522.34;;;3.35;71.00
7532;BME280;3807;49.030;8.714;2023-01-29T04:10:32;100518.09;;;3.32;70.98
7532;BME280;3807;49.030;8.714;2023-01-29T04:13:05;100516.41;;;3.33;70.99
7532;BME280;3807;49.030;8.714;2023-01-29T04:15:39;100518.97;;;3.36;70.89
7532;BME280;3807;49.030;8.714;2023-01-29T04:18:05;100520.66;;;3.37;70.91
7532;BME280;3807;49.030;8.714;2023-01-29T04:20:30;100530.78;;;3.40;70.65
7532;BME280;3807;49.030;8.714;2023-01-29T04:22:55;100528.28;;;3.42;70.53
7532;BME280;3807;49.030;8.714;2023-01-29T04:25:23;100520.72;;;3.39;70.62
7532;BME280;3807;49.030;8.714;2023-01-29T04:28:16;100516.47;;;3.36;70.72
7532;BME280;3807;49.030;8.714;2023-01-29T04:33:49;100515.56;;;3.32;70.76
7532;BME280;3807;49.030;8.714;2023-01-29T04:41:49;100513.84;;;3.30;70.86
7532;BME280;3807;49.030;8.714;2023-01-29T04:44:22;100526.38;;;3.25;70.96
7532;BME280;3807;49.030;8.714;2023-01-29T04:49:36;100529.78;;;3.30;70.89
7532;BME280;3807;49.030;8.714;2023-01-29T04:52:14;100522.19;;;3.26;70.87
7532;BME280;3807;49.030;8.714;2023-01-29T04:59:59;100527.22;;;3.27;70.68
7532;BME280;3807;49.030;8.714;2023-01-29T05:02:28;100521.34;;;3.27;70.76
7532;BME280;3807;49.030;8.714;2023-01-29T05:04:57;100522.91;;;3.19;70.85
7532;BME280;3807;49.030;8.714;2023-01-29T05:07:23;100525.19;;;3.05;71.14
7532;BME280;3807;49.030;8.714;2023-01-29T05:09:50;100532.16;;;3.20;70.78
7532;BME280;3807;49.030;8.714;2023-01-29T05:12:16;100526.94;;;3.09;70.96
7532;BME280;3807;49.030;8.714;2023-01-29T05:14:44;100540.47;;;3.16;70.66
7532;BME280;3807;49.030;8.714;2023-01-29T05:17:15;100551.31;;;3.12;70.65
7532;BME280;3807;49.030;8.714;2023-01-29T05:19:42;100550.53;;;3.16;70.52
7532;BME280;3807;49.030;8.714;2023-01-29T05:22:10;100531.03;;;3.02;69.99
7532;BME280;3807;49.030;8.714;2023-01-29T05:24:36;100521.13;;;3.12;70.27
7532;BME280;3807;49.030;8.714;2023-01-29T05:27:01;100517.81;;;3.16;70.62
7532;BME280;3807;49.030;8.714;2023-01-29T05:29:46;100512.91;;;3.23;70.37
7532;BME280;3807;49.030;8.714;2023-01-29T05:32:12;100494.44;;;3.23;70.35
7532;BME280;3807;49.030;8.714;2023-01-29T05:34:37;100478.56;;;3.27;70.15
7532;BME280;3807;49.030;8.714;2023-01-29T05:37:03;100482.75;;;3.26;70.27
7532;BME280;3807;49.030;8.714;2023-01-29T05:39:28;100481.88;;;3.24;70.29
7532;BME280;3807;49.030;8.714;2023-01-29T05:41:53;100490.16;;;3.17;70.50
7532;BME280;3807;49.030;8.714;2023-01-29T05:44:19;100499.28;;;3.10;70.80
7532;BME280;3807;49.030;8.714;2023-01-29T05:46:44;100499.41;;;3.18;70.48
7532;BME280;3807;49.030;8.714;2023-01-29T05:49:10;100494.37;;;3.18;70.36
7532;BME280;3807;49.030;8.714;2023-01-29T05:51:36;100486.78;;;3.17;70.46
7532;BME280;3807;49.030;8.714;2023-01-29T05:54:01;100491.81;;;3.17;70.43
7532;BME280;3807;49.030;8.714;2023-01-29T05:56:26;100511.16;;;3.19;70.38
7532;BME280;3807;49.030;8.714;2023-01-29T05:58:52;100511.09;;;3.15;70.55
7532;BME280;3807;49.030;8.714;2023-01-29T06:01:20;100502.66;;;3.13;70.56
7532;BME280;3807;49.030;8.714;2023-01-29T06:03:46;100505.94;;;3.07;70.62
7532;BME280;3807;49.030;8.714;2023-01-29T06:06:11;100511.87;;;3.10;70.47
7532;BME280;3807;49.030;8.714;2023-01-29T06:08:37;100516.09;;;3.13;70.25
7532;BME280;3807;49.030;8.714;2023-01-29T06:11:03;100510.25;;;3.14;70.39
7532;BME280;3807;49.030;8.714;2023-01-29T06:13:29;100516.97;;;3.15;70.29
7532;BME280;3807;49.030;8.714;2023-01-29T06:15:54;100521.97;;;3.14;70.48
7532;BME280;3807;49.030;8.714;2023-01-29T06:18:20;100522.84;;;3.14;70.44
7532;BME280;3807;49.030;8.714;2023-01-29T06:20:45;100522.75;;;3.08;70.52
7532;BME280;3807;49.030;8.714;2023-01-29T06:23:10;100521.91;;;3.09;70.53
7532;BME280;3807;49.030;8.714;2023-01-29T06:25:36;100517.63;;;3.03;70.67
7532;BME280;3807;49.030;8.714;2023-01-29T06:28:01;100513.44;;;3.04;70.59
7532;BME280;3807;49.030;8.714;2023-01-29T06:30:26;100527.78;;;3.08;70.51
7532;BME280;3807;49.030;8.714;2023-01-29T06:32:56;100515.19;;;3.09;70.23
7532;BME280;3807;49.030;8.714;2023-01-29T06:35:23;100516.84;;;3.07;70.31
7532;BME280;3807;49.030;8.714;2023-01-29T06:37:49;100516.03;;;3.07;70.36
7532;BME280;3807;49.030;8.714;2023-01-29T06:40:14;100508.44;;;3.05;70.45
7532;BME280;3807;49.030;8.714;2023-01-29T06:42:40;100505.06;;;3.05;70.47
7532;BME280;3807;49.030;8.714;2023-01-29T06:45:05;100511.84;;;3.09;70.22
7532;BME280;3807;49.030;8.714;2023-01-29T06:47:31;100515.91;;;3.01;70.52
7532;BME280;3807;49.030;8.714;2023-01-29T06:49:56;100519.31;;;3.04;70.44
7532;BME280;3807;49.030;8.714;2023-01-29T06:52:22;100518.50;;;3.05;70.26
7532;BME280;3807;49.030;8.714;2023-01-29T06:54:47;100515.84;;;2.98;70.62
7532;BME280;3807;49.030;8.714;2023-01-29T06:57:12;100502.44;;;2.99;70.47
7532;BME280;3807;49.030;8.714;2023-01-29T06:59:38;100504.97;;;2.99;70.46
7532;BME280;3807;49.030;8.714;2023-01-29T07:02:03;100510.03;;;3.00;70.38
7532;BME280;3807;49.030;8.714;2023-01-29T07:04:28;100505.84;;;3.02;70.41
7532;BME280;3807;49.030;8.714;2023-01-29T07:06:54;100514.19;;;3.00;70.31
7532;BME280;3807;49.030;8.714;2023-01-29T07:09:19;100519.28;;;3.03;70.25
7532;BME280;3807;49.030;8.714;2023-01-29T07:11:44;100523.47;;;3.01;70.39
7532;BME280;3807;49.030;8.714;2023-01-29T07:14:10;100535.25;;;3.03;70.30
7532;BME280;3807;49.030;8.714;2023-01-29T07:16:35;100529.34;;;3.03;70.31
7532;BME280;3807;49.030;8.714;2023-01-29T07:19:00;100534.31;;;2.97;70.07
7532;BME280;3807;49.030;8.714;2023-01-29T07:21:26;100534.97;;;2.88;70.68
7532;BME280;3807;49.030;8.714;2023-01-29T07:23:52;100529.16;;;2.92;70.52
7532;BME280;3807;49.030;8.714;2023-01-29T07:26:17;100536.75;;;2.94;70.45
7532;BME280;3807;49.030;8.714;2023-01-29T07:28:42;100548.47;;;2.92;70.58
7532;BME280;3807;49.030;8.714;2023-01-29T07:31:11;100539.19;;;2.89;70.55
7532;BME280;3807;49.030;8.714;2023-01-29T07:33:36;100543.44;;;2.92;70.56
7532;BME280;3807;49.030;8.714;2023-01-29T07:36:06;100533.34;;;2.90;70.52
7532;BME280;3807;49.030;8.714;2023-01-29T07:38:31;100528.37;;;2.95;70.28
7532;BME280;3807;49.030;8.714;2023-01-29T07:40:57;100531.75;;;2.95;70.27
7532;BME280;3807;49.030;8.714;2023-01-29T07:43:22;100528.44;;;2.98;70.26
7532;BME280;3807;49.030;8.714;2023-01-29T07:45:49;100534.97;;;2.86;70.60
7532;BME280;3807;49.030;8.714;2023-01-29T07:48:14;100544.31;;;2.94;70.38
7532;BME280;3807;49.030;8.714;2023-01-29T07:50:40;100551.03;;;2.95;70.28
7532;BME280;3807;49.030;8.714;2023-01-29T07:53:05;100558.63;;;2.98;70.06
7532;BME280;3807;49.030;8.714;2023-01-29T07:55:31;100571.09;;;2.92;70.22
7532;BME280;3807;49.030;8.714;2023-01-29T07:57:58;100579.53;;;2.94;70.30
7532;BME280;3807;49.030;8.714;2023-01-29T08:00:24;100574.50;;;2.95;69.83
7532;BME280;3807;49.030;8.714;2023-01-29T08:02:50;100579.41;;;2.86;70.34
7532;BME280;3807;49.030;8.714;2023-01-29T08:05:15;100574.38;;;2.87;70.53
7532;BME280;3807;49.030;8.714;2023-01-29T08:07:41;100574.47;;;2.92;70.22
7532;BME280;3807;49.030;8.714;2023-01-29T08:10:06;100574.56;;;2.97;70.17
7532;BME280;3807;49.030;8.714;2023-01-29T08:12:32;100577.94;;;2.99;70.11
7532;BME280;3807;49.030;8.714;2023-01-29T08:14:57;100579.63;;;3.00;70.09
7532;BME280;3807;49.030;8.714;2023-01-29T08:17:22;100571.88;;;2.87;70.53
7532;BME280;3807;49.030;8.714;2023-01-29T08:19:48;100575.34;;;2.94;70.24
7532;BME280;3807;49.030;8.714;2023-01-29T08:22:13;100576.91;;;2.89;70.41
7532;BME280;3807;49.030;8.714;2023-01-29T08:24:40;100576.97;;;2.92;70.26
7532;BME280;3807;49.030;8.714;2023-01-29T08:27:06;100582.13;;;3.00;70.02
7532;BME280;3807;49.030;8.714;2023-01-29T08:29:31;100588.00;;;2.97;70.26
7532;BME280;3807;49.030;8.714;2023-01-29T08:31:56;100587.16;;;3.00;70.11
7532;BME280;3807;49.030;8.714;2023-01-29T08:34:22;100584.56;;;2.94;70.25
7532;BME280;3807;49.030;8.714;2023-01-29T08:36:47;100588.00;;;2.97;70.20
7532;BME280;3807;49.030;8.714;2023-01-29T08:39:12;100587.94;;;2.96;70.26
7532;BME280;3807;49.030;8.714;2023-01-29T08:41:38;100580.50;;;3.02;69.99
7532;BME280;3807;49.030;8.714;2023-01-29T08:44:03;100574.62;;;3.01;69.94
7532;BME280;3807;49.030;8.714;2023-01-29T08:46:29;100574.56;;;2.97;70.03
7532;BME280;3807;49.030;8.714;2023-01-29T08:48:55;100578.72;;;2.96;70.18
7532;BME280;3807;49.030;8.714;2023-01-29T08:51:21;100584.72;;;3.03;69.92
7532;BME280;3807;49.030;8.714;2023-01-29T08:53:48;100578.06;;;3.06;69.72
7532;BME280;3807;49.030;8.714;2023-01-29T08:56:13;100582.97;;;2.99;70.00
7532;BME280;3807;49.030;8.714;2023-01-29T08:58:40;100575.41;;;2.99;70.02
7532;BME280;3807;49.030;8.714;2023-01-29T09:01:07;100569.63;;;3.03;69.98
7532;BME280;3807;49.030;8.714;2023-01-29T09:03:33;100579.72;;;3.04;69.86
7532;BME280;3807;49.030;8.714;2023-01-29T09:05:58;100580.56;;;3.03;70.05
7532;BME280;3807;49.030;8.714;2023-01-29T09:08:24;100576.31;;;3.01;69.92
7532;BME280;3807;49.030;8.714;2023-01-29T09:10:49;100577.19;;;3.04;69.98
7532;BME280;3807;49.030;8.714;2023-01-29T09:13:14;100579.69;;;3.03;69.90
7532;BME280;3807;49.030;8.714;2023-01-29T09:15:40;100579.72;;;3.04;69.99
7532;BME280;3807;49.030;8.714;2023-01-29T09:18:05;100593.91;;;3.01;70.13
7532;BME280;3807;49.030;8.714;2023-01-29T09:20:31;100594.72;;;3.00;70.09
7532;BME280;3807;49.030;8.714;2023-01-29T09:22:57;100599.75;;;3.00;70.03
7532;BME280;3807;49.030;8.714;2023-01-29T09:25:23;100601.47;;;3.02;69.98
7532;BME280;3807;49.030;8.714;2023-01-29T09:27:49;100601.47;;;3.01;70.01
7532;BME280;3807;49.030;8.714;2023-01-29T09:30:15;100591.59;;;3.12;69.52
7532;BME280;3807;49.030;8.714;2023-01-29T09:32:40;100588.97;;;3.05;69.97
7532;BME280;3807;49.030;8.714;2023-01-29T09:35:06;100573.84;;;3.04;69.99
7532;BME280;3807;49.030;8.714;2023-01-29T09:37:31;100564.81;;;3.17;69.44
7532;BME280;3807;49.030;8.714;2023-01-29T09:39:56;100552.94;;;3.09;69.84
7532;BME280;3807;49.030;8.714;2023-01-29T09:42:45;100539.59;;;3.14;69.76
7532;BME280;3807;49.030;8.714;2023-01-29T09:45:14;100530.94;;;2.98;69.29
7532;BME280;3807;49.030;8.714;2023-01-29T09:47:40;100534.41;;;3.04;69.77
7532;BME280;3807;49.030;8.714;2023-01-29T09:50:12;100527.81;;;3.11;69.86
7532;BME280;3807;49.030;8.714;2023-01-29T09:52:47;100527.88;;;3.14;69.67
7532;BME280;3807;49.030;8.714;2023-01-29T09:55:18;100533.81;;;3.18;69.56
7532;BME280;3807;49.030;8.714;2023-01-29T09:58:28;100539.78;;;3.24;69.26
7532;BME280;3807;49.030;8.714;2023-01-29T10:01:20;100533.88;;;3.24;69.02
7532;BME280;3807;49.030;8.714;2023-01-29T10:20:51;100539.78;;;3.24;70.21
7532;BME280;3807;49.030;8.714;2023-01-29T10:23:35;100548.19;;;3.26;70.17
7532;BME280;3807;49.030;8.714;2023-01-29T10:26:01;100545.87;;;3.39;69.88
7532;BME280;3807;49.030;8.714;2023-01-29T10:28:33;100542.50;;;3.38;70.06
7532;BME280;3807;49.030;8.714;2023-01-29T10:31:28;100550.66;;;3.22;70.74
7532;BME280;3807;49.030;8.714;2023-01-29T10:34:12;100559.19;;;3.31;70.55
7532;BME280;3807;49.030;8.714;2023-01-29T10:39:17;100554.22;;;3.36;69.96
7532;BME280;3807;49.030;8.714;2023-01-29T10:47:16;100562.63;;;3.37;70.60
7532;BME280;3807;49.030;8.714;2023-01-29T11:00:42;100561.09;;;3.46;70.75
7532;BME280;3807;49.030;8.714;2023-01-29T11:06:26;100534.25;;;3.45;70.53
7532;BME280;3807;49.030;8.714;2023-01-29T11:11:53;100529.22;;;3.47;68.05
7532;BME280;3807;49.030;8.714;2023-01-29T11:14:25;100519.13;;;3.45;68.95
7532;BME280;3807;49.030;8.714;2023-01-29T11:16:51;100520.03;;;3.49;70.39
7532;BME280;3807;49.030;8.714;2023-01-29T11:19:17;100516.62;;;3.47;70.55
7532;BME280;3807;49.030;8.714;2023-01-29T11:21:56;100512.69;;;3.66;68.75
7532;BME280;3807;49.030;8.714;2023-01-29T11:24:22;100511.09;;;3.72;68.82
7532;BME280;3807;49.030;8.714;2023-01-29T11:26:49;100497.59;;;3.67;69.48
7532;BME280;3807;49.030;8.714;2023-01-29T11:32:05;100485.81;;;3.65;70.22
7532;BME280;3807;49.030;8.714;2023-01-29T11:34:31;100480.56;;;3.49;69.50
7532;BME280;3807;49.030;8.714;2023-01-29T11:37:04;100475.91;;;3.77;68.45
7532;BME280;3807;49.030;8.714;2023-01-29T11:39:42;100472.41;;;3.69;67.85
7532;BME280;3807;49.030;8.714;2023-01-29T11:42:18;100482.59;;;3.75;69.44
7532;BME280;3807;49.030;8.714;2023-01-29T11:44:44;100479.91;;;3.63;70.38
7532;BME280;3807;49.030;8.714;2023-01-29T11:47:20;100480.06;;;3.75;70.06
7532;BME280;3807;49.030;8.714;2023-01-29T11:49:52;100468.31;;;3.74;69.81
7532;BME280;3807;49.030;8.714;2023-01-29T11:52:21;100470.94;;;3.85;69.73
7532;BME280;3807;49.030;8.714;2023-01-29T11:54:55;100459.72;;;3.61;70.21
7532;BME280;3807;49.030;8.714;2023-01-29T11:57:37;100460.03;;;3.86;68.45
7532;BME280;3807;49.030;8.714;2023-01-29T12:00:16;100452.38;;;3.78;69.77
7532;BME280;3807;49.030;8.714;2023-01-29T12:02:44;100454.97;;;3.82;66.95
7532;BME280;3807;49.030;8.714;2023-01-29T12:05:18;100445.59;;;3.71;69.84
7532;BME280;3807;49.030;8.714;2023-01-29T12:07:47;100440.81;;;3.94;69.49
7532;BME280;3807;49.030;8.714;2023-01-29T12:10:36;100435.81;;;3.95;68.71
7532;BME280;3807;49.030;8.714;2023-01-29T12:15:46;100423.87;;;3.80;68.30
7532;BME280;3807;49.030;8.714;2023-01-29T12:18:38;100424.72;;;3.82;69.67
7532;BME280;3807;49.030;8.714;2023-01-29T12:21:12;100418.09;;;3.89;69.90
7532;BME280;3807;49.030;8.714;2023-01-29T12:23:46;100424.72;;;3.82;70.00
7532;BME280;3807;49.030;8.714;2023-01-29T12:26:17;100412.06;;;3.78;70.10
7532;BME280;3807;49.030;8.714;2023-01-29T12:28:50;100399.56;;;3.84;68.78
7532;BME280;3807;49.030;8.714;2023-01-29T12:31:42;100393.50;;;3.68;69.66
7532;BME280;3807;49.030;8.714;2023-01-29T12:34:21;100386.19;;;3.91;69.72
7532;BME280;3807;49.030;8.714;2023-01-29T12:36:56;100377.66;;;3.80;69.46
7532;BME280;3807;49.030;8.714;2023-01-29T12:39:24;100382.84;;;3.91;69.85
7532;BME280;3807;49.030;8.714;2023-01-29T12:41:55;100367.66;;;3.85;67.04
7532;BME280;3807;49.030;8.714;2023-01-29T12:44:35;100363.44;;;3.85;69.43
7532;BME280;3807;49.030;8.714;2023-01-29T12:47:10;100361.84;;;3.93;69.23
7532;BME280;3807;49.030;8.714;2023-01-29T12:49:38;100353.22;;;3.73;67.04
7532;BME280;3807;49.030;8.714;2023-01-29T12:54:35;100351.72;;;3.89;68.54
7532;BME280;3807;49.030;8.714;2023-01-29T12:57:08;100346.78;;;3.98;68.01
7532;BME280;3807;49.030;8.714;2023-01-29T12:59:42;100339.31;;;4.09;68.93
7532;BME280;3807;49.030;8.714;2023-01-29T13:07:41;100334.06;;;3.84;68.58
7532;BME280;3807;49.030;8.714;2023-01-29T13:10:13;100319.94;;;4.03;69.37
7532;BME280;3807;49.030;8.714;2023-01-29T13:12:50;100320.03;;;4.14;69.31
7532;BME280;3807;49.030;8.714;2023-01-29T13:15:29;100321.75;;;4.16;68.97
7532;BME280;3807;49.030;8.714;2023-01-29T13:18:22;100320.00;;;4.11;68.78
7532;BME280;3807;49.030;8.714;2023-01-29T13:20:50;100328.44;;;4.14;69.36
7532;BME280;3807;49.030;8.714;2023-01-29T13:23:20;100323.47;;;4.25;68.78
7532;BME280;3807;49.030;8.714;2023-01-29T13:25:49;100325.22;;;4.32;68.81
7532;BME280;3807;49.030;8.714;2023-01-29T13:28:21;100325.09;;;4.18;69.21
7532;BME280;3807;49.030;8.714;2023-01-29T13:33:41;100326.88;;;4.25;68.95
7532;BME280;3807;49.030;8.714;2023-01-29T13:36:18;100331.84;;;4.21;68.66
7532;BME280;3807;49.030;8.714;2023-01-29T13:39:16;100323.56;;;4.34;68.77
7532;BME280;3807;49.030;8.714;2023-01-29T13:41:41;100331.97;;;4.35;68.88
7532;BME280;3807;49.030;8.714;2023-01-29T13:44:19;100326.81;;;4.19;65.59
7532;BME280;3807;49.030;8.714;2023-01-29T13:46:58;100333.75;;;4.45;68.77
7532;BME280;3807;49.030;8.714;2023-01-29T13:51:52;100326.97;;;4.38;68.79
7532;BME280;3807;49.030;8.714;2023-01-29T13:54:23;100326.19;;;4.48;67.65
7532;BME280;3807;49.030;8.714;2023-01-29T13:57:00;100319.44;;;4.44;66.39
7532;BME280;3807;49.030;8.714;2023-01-29T13:59:49;100316.91;;;4.42;68.48
7532;BME280;3807;49.030;8.714;2023-01-29T14:02:21;100312.59;;;4.27;69.07
7532;BME280;3807;49.030;8.714;2023-01-29T14:04:47;100311.69;;;4.21;68.11
7532;BME280;3807;49.030;8.714;2023-01-29T14:07:38;100309.13;;;4.16;65.25
7532;BME280;3807;49.030;8.714;2023-01-29T14:10:16;100293.69;;;3.82;65.81
7532;BME280;3807;49.030;8.714;2023-01-29T14:12:43;100298.13;;;4.06;68.66
7532;BME280;3807;49.030;8.714;2023-01-29T14:15:22;100299.13;;;4.28;67.29
7532;BME280;3807;49.030;8.714;2023-01-29T14:18:20;100297.28;;;4.07;66.17
7532;BME280;3807;49.030;8.714;2023-01-29T14:23:50;100283.12;;;4.19;68.23
7532;BME280;3807;49.030;8.714;2023-01-29T14:31:59;100278.78;;;4.04;67.06
7532;BME280;3807;49.030;8.714;2023-01-29T14:34:35;100275.69;;;4.37;66.98
7532;BME280;3807;49.030;8.714;2023-01-29T14:37:21;100290.03;;;4.43;65.28
7532;BME280;3807;49.030;8.714;2023-01-29T14:39:50;100284.97;;;4.43;68.31
7532;BME280;3807;49.030;8.714;2023-01-29T14:47:22;100293.31;;;4.33;66.66
7532;BME280;3807;49.030;8.714;2023-01-29T14:53:22;100291.47;;;4.15;66.00
7532;BME280;3807;49.030;8.714;2023-01-29T14:58:37;100284.63;;;4.00;66.78
7532;BME280;3807;49.030;8.714;2023-01-29T15:01:20;100285.66;;;4.23;68.58
7532;BME280;3807;49.030;8.714;2023-01-29T15:03:52;100288.25;;;4.31;68.64
7532;BME280;3807;49.030;8.714;2023-01-29T15:06:31;100289.91;;;4.26;68.44
7532;BME280;3807;49.030;8.714;2023-01-29T15:09:02;100284.84;;;4.27;67.49
7532;BME280;3807;49.030;8.714;2023-01-29T15:11:36;100290.75;;;4.29;66.62
7532;BME280;3807;49.030;8.714;2023-01-29T15:14:21;100291.66;;;4.38;67.70
7532;BME280;3807;49.030;8.714;2023-01-29T15:19:43;100300.12;;;4.43;67.89
7532;BME280;3807;49.030;8.714;2023-01-29T15:22:17;100293.19;;;4.20;66.19
7532;BME280;3807;49.030;8.714;2023-01-29T15:24:45;100296.72;;;4.41;68.10
7532;BME280;3807;49.030;8.714;2023-01-29T15:27:17;100298.34;;;4.33;68.35
7532;BME280;3807;49.030;8.714;2023-01-29T15:29:47;100299.13;;;4.28;66.70
7532;BME280;3807;49.030;8.714;2023-01-29T15:32:26;100305.47;;;3.80;65.57
7532;BME280;3807;49.030;8.714;2023-01-29T15:34:55;100289.06;;;3.40;68.33
7532;BME280;3807;49.030;8.714;2023-01-29T15:37:29;100289.69;;;4.01;68.08
7532;BME280;3807;49.030;8.714;2023-01-29T15:39:55;100281.00;;;3.70;65.33
7532;BME280;3807;49.030;8.714;2023-01-29T15:42:20;100273.72;;;4.02;65.26
7532;BME280;3807;49.030;8.714;2023-01-29T15:44:50;100278.84;;;4.10;67.03
7532;BME280;3807;49.030;8.714;2023-01-29T15:47:16;100280.69;;;4.29;67.43
7532;BME280;3807;49.030;8.714;2023-01-29T15:49:44;100270.06;;;3.68;66.79